RWZ1628 UNOO-UIII
Flight info
| Callsign | RWZ1628 |
|---|---|
| Flight time | 2h 21m |
| Altitude | 37000 |
| Route | RUMOD5C RUMOD A844 BIKMI R234 ABESA L158 NOSPI A91 KEDRA W241 BD BD4A |
| Aircraft | T204/M-SDE2E3FGHIJ3J4J7RWXY/LB1 |
Departure
| Time | 2026-04-21 10:18 |
|---|---|
| Airport | Omsk Central Airport (UNOO) |
Arrival
| Time | 2026-04-21 12:40 |
|---|---|
| Airport | Irkutsk International Airport (UIII) |
| Time | Latitude | Longitude | Altitude | Speed | Heading |
|---|---|---|---|---|---|
| 2026-04-21 09:52 | 54.95998 | 73.31507 | 294 ft | 0 kts | 105° |
| 2026-04-21 10:08 | 54.95997 | 73.31514 | 294 ft | 2 kts | 105° |
| 2026-04-21 10:08 | 54.95991 | 73.31580 | 294 ft | 5 kts | 80° |
| 2026-04-21 10:08 | 54.96013 | 73.31632 | 294 ft | 5 kts | 46° |
| 2026-04-21 10:08 | 54.96046 | 73.31691 | 293 ft | 8 kts | 45° |
| 2026-04-21 10:09 | 54.96094 | 73.31776 | 291 ft | 10 kts | 46° |
| 2026-04-21 10:09 | 54.96133 | 73.31848 | 291 ft | 6 kts | 45° |
| 2026-04-21 10:09 | 54.96142 | 73.31862 | 291 ft | 0 kts | 40° |
| 2026-04-21 10:10 | 54.96153 | 73.31878 | 291 ft | 6 kts | 36° |
| 2026-04-21 10:10 | 54.96191 | 73.31908 | 291 ft | 4 kts | 355° |
| 2026-04-21 10:10 | 54.96210 | 73.31889 | 291 ft | 2 kts | 314° |
| 2026-04-21 10:10 | 54.96223 | 73.31863 | 291 ft | 4 kts | 311° |
| 2026-04-21 10:11 | 54.96259 | 73.31801 | 291 ft | 9 kts | 316° |
| 2026-04-21 10:11 | 54.96317 | 73.31707 | 291 ft | 11 kts | 318° |
| 2026-04-21 10:11 | 54.96365 | 73.31617 | 291 ft | 8 kts | 301° |
| 2026-04-21 10:11 | 54.96368 | 73.31529 | 291 ft | 6 kts | 257° |
| 2026-04-21 10:12 | 54.96360 | 73.31464 | 291 ft | 5 kts | 257° |
| 2026-04-21 10:12 | 54.96351 | 73.31394 | 291 ft | 7 kts | 257° |
| 2026-04-21 10:12 | 54.96336 | 73.31284 | 292 ft | 10 kts | 257° |
| 2026-04-21 10:12 | 54.96323 | 73.31188 | 294 ft | 5 kts | 257° |
| 2026-04-21 10:13 | 54.96314 | 73.31117 | 294 ft | 8 kts | 257° |
| 2026-04-21 10:13 | 54.96296 | 73.30975 | 294 ft | 15 kts | 257° |
| 2026-04-21 10:13 | 54.96265 | 73.30759 | 294 ft | 21 kts | 256° |
| 2026-04-21 10:13 | 54.96231 | 73.30500 | 297 ft | 20 kts | 258° |
| 2026-04-21 10:14 | 54.96204 | 73.30267 | 297 ft | 18 kts | 256° |
| 2026-04-21 10:14 | 54.96173 | 73.30067 | 299 ft | 14 kts | 257° |
| 2026-04-21 10:14 | 54.96153 | 73.29916 | 301 ft | 11 kts | 256° |
| 2026-04-21 10:14 | 54.96135 | 73.29786 | 301 ft | 11 kts | 257° |
| 2026-04-21 10:15 | 54.96114 | 73.29623 | 301 ft | 15 kts | 257° |
| 2026-04-21 10:15 | 54.96089 | 73.29441 | 302 ft | 15 kts | 257° |
| 2026-04-21 10:15 | 54.96090 | 73.29295 | 304 ft | 10 kts | 315° |
| 2026-04-21 10:15 | 54.96149 | 73.29258 | 304 ft | 7 kts | 347° |
| 2026-04-21 10:16 | 54.96166 | 73.29251 | 304 ft | 0 kts | 347° |
| 2026-04-21 10:16 | 54.96168 | 73.29250 | 304 ft | 2 kts | 347° |
| 2026-04-21 10:16 | 54.96210 | 73.29234 | 304 ft | 10 kts | 347° |
| 2026-04-21 10:17 | 54.96309 | 73.29192 | 304 ft | 18 kts | 346° |
| 2026-04-21 10:17 | 54.96421 | 73.29150 | 304 ft | 12 kts | 352° |
| 2026-04-21 10:17 | 54.96465 | 73.29174 | 304 ft | 5 kts | 60° |
| 2026-04-21 10:17 | 54.96470 | 73.29206 | 304 ft | 0 kts | 77° |
| 2026-04-21 10:18 | 54.96489 | 73.29343 | 301 ft | 45 kts | 76° |
| 2026-04-21 10:18 | 54.96626 | 73.30383 | 295 ft | 130 kts | 76° |
| 2026-04-21 10:18 | 54.96885 | 73.32313 | 563 ft | 187 kts | 76° |
| 2026-04-21 10:18 | 54.97241 | 73.34557 | 1280 ft | 204 kts | 73° |
| 2026-04-21 10:19 | 54.97604 | 73.37105 | 1921 ft | 234 kts | 77° |
| 2026-04-21 10:19 | 54.97982 | 73.39934 | 2463 ft | 242 kts | 78° |
| 2026-04-21 10:19 | 54.98354 | 73.42800 | 3055 ft | 246 kts | 78° |
| 2026-04-21 10:19 | 54.98725 | 73.45699 | 3645 ft | 250 kts | 79° |
| 2026-04-21 10:20 | 54.99103 | 73.48747 | 4272 ft | 263 kts | 79° |
| 2026-04-21 10:20 | 54.99481 | 73.51861 | 4870 ft | 270 kts | 79° |
| 2026-04-21 10:20 | 55.00065 | 73.54970 | 5478 ft | 279 kts | 57° |
| 2026-04-21 10:20 | 55.01544 | 73.57106 | 6133 ft | 283 kts | 27° |
| 2026-04-21 10:21 | 55.03307 | 73.58647 | 6893 ft | 289 kts | 24° |
| 2026-04-21 10:21 | 55.05122 | 73.60129 | 7590 ft | 292 kts | 23° |
| 2026-04-21 10:21 | 55.06952 | 73.61601 | 8268 ft | 294 kts | 23° |
| 2026-04-21 10:21 | 55.08824 | 73.63105 | 8950 ft | 298 kts | 22° |
| 2026-04-21 10:22 | 55.10692 | 73.64603 | 9640 ft | 300 kts | 22° |
| 2026-04-21 10:22 | 55.12597 | 73.66137 | 10330 ft | 303 kts | 22° |
| 2026-04-21 10:22 | 55.14501 | 73.67673 | 10999 ft | 306 kts | 22° |
| 2026-04-21 10:22 | 55.16433 | 73.69230 | 11657 ft | 308 kts | 22° |
| 2026-04-21 10:23 | 55.18388 | 73.70804 | 12370 ft | 310 kts | 21° |
| 2026-04-21 10:23 | 55.20340 | 73.72377 | 13061 ft | 313 kts | 21° |
| 2026-04-21 10:23 | 55.22333 | 73.73983 | 13771 ft | 316 kts | 20° |
| 2026-04-21 10:23 | 55.24317 | 73.75576 | 14424 ft | 318 kts | 20° |
| 2026-04-21 10:24 | 55.26337 | 73.77183 | 15100 ft | 321 kts | 20° |
| 2026-04-21 10:24 | 55.28347 | 73.78779 | 15769 ft | 323 kts | 20° |
| 2026-04-21 10:24 | 55.30386 | 73.80538 | 16460 ft | 331 kts | 28° |
| 2026-04-21 10:24 | 55.32211 | 73.83037 | 17127 ft | 336 kts | 36° |
| 2026-04-21 10:25 | 55.33896 | 73.85875 | 17789 ft | 345 kts | 49° |
| 2026-04-21 10:25 | 55.35057 | 73.89548 | 18455 ft | 354 kts | 67° |
| 2026-04-21 10:25 | 55.35671 | 73.93770 | 19196 ft | 362 kts | 79° |
| 2026-04-21 10:25 | 55.35848 | 73.98206 | 19892 ft | 369 kts | 92° |
| 2026-04-21 10:26 | 55.35546 | 74.02744 | 20636 ft | 374 kts | 99° |
| 2026-04-21 10:26 | 55.35113 | 74.07195 | 21360 ft | 378 kts | 101° |
| 2026-04-21 10:26 | 55.34619 | 74.11771 | 22137 ft | 382 kts | 101° |
| 2026-04-21 10:26 | 55.34102 | 74.16363 | 22925 ft | 389 kts | 102° |
| 2026-04-21 10:27 | 55.33572 | 74.21021 | 23693 ft | 395 kts | 102° |
| 2026-04-21 10:27 | 55.33028 | 74.25779 | 24527 ft | 406 kts | 102° |
| 2026-04-21 10:27 | 55.32468 | 74.30669 | 25394 ft | 416 kts | 102° |
| 2026-04-21 10:27 | 55.31894 | 74.35702 | 26243 ft | 425 kts | 102° |
| 2026-04-21 10:28 | 55.31308 | 74.40833 | 27082 ft | 434 kts | 102° |
| 2026-04-21 10:28 | 55.30712 | 74.46067 | 27905 ft | 443 kts | 102° |
| 2026-04-21 10:28 | 55.30109 | 74.51389 | 28732 ft | 451 kts | 101° |
| 2026-04-21 10:28 | 55.29504 | 74.56737 | 29543 ft | 458 kts | 102° |
| 2026-04-21 10:29 | 55.28879 | 74.62309 | 30387 ft | 465 kts | 101° |
| 2026-04-21 10:29 | 55.28257 | 74.67842 | 31192 ft | 472 kts | 102° |
| 2026-04-21 10:29 | 55.27625 | 74.73509 | 31990 ft | 478 kts | 102° |
| 2026-04-21 10:29 | 55.26988 | 74.79205 | 32760 ft | 483 kts | 102° |
| 2026-04-21 10:30 | 55.26345 | 74.85013 | 33558 ft | 488 kts | 102° |
| 2026-04-21 10:30 | 55.25699 | 74.90879 | 34340 ft | 493 kts | 102° |
| 2026-04-21 10:30 | 55.25046 | 74.96791 | 35083 ft | 498 kts | 102° |
| 2026-04-21 10:30 | 55.24386 | 75.02760 | 35721 ft | 503 kts | 102° |
| 2026-04-21 10:31 | 55.23725 | 75.08801 | 36356 ft | 506 kts | 102° |
| 2026-04-21 10:31 | 55.23070 | 75.14804 | 36866 ft | 512 kts | 102° |
| 2026-04-21 10:31 | 55.22398 | 75.20983 | 36901 ft | 522 kts | 102° |
| 2026-04-21 10:32 | 55.21072 | 75.33362 | 36939 ft | 517 kts | 101° |
| 2026-04-21 10:32 | 55.19760 | 75.45726 | 36940 ft | 516 kts | 101° |
| 2026-04-21 10:33 | 55.18471 | 75.57957 | 36930 ft | 517 kts | 101° |
| 2026-04-21 10:33 | 55.17155 | 75.70296 | 36924 ft | 516 kts | 103° |
| 2026-04-21 10:34 | 55.15592 | 75.82445 | 36936 ft | 516 kts | 104° |
| 2026-04-21 10:34 | 55.13959 | 75.94727 | 36931 ft | 517 kts | 104° |
| 2026-04-21 10:35 | 55.12337 | 76.06956 | 36949 ft | 517 kts | 104° |
| 2026-04-21 10:35 | 55.10741 | 76.19062 | 36929 ft | 516 kts | 104° |
| 2026-04-21 10:36 | 55.09136 | 76.31314 | 36940 ft | 517 kts | 104° |
| 2026-04-21 10:36 | 55.07560 | 76.43459 | 36947 ft | 517 kts | 103° |
| 2026-04-21 10:37 | 55.05992 | 76.55630 | 36948 ft | 518 kts | 103° |
| 2026-04-21 10:37 | 55.04429 | 76.67866 | 36952 ft | 518 kts | 104° |
| 2026-04-21 10:38 | 55.02880 | 76.80098 | 36957 ft | 519 kts | 103° |
| 2026-04-21 10:38 | 55.01342 | 76.92326 | 36938 ft | 518 kts | 103° |
| 2026-04-21 10:39 | 54.99816 | 77.04562 | 36953 ft | 519 kts | 103° |
| 2026-04-21 10:39 | 54.98301 | 77.16778 | 36952 ft | 518 kts | 103° |
| 2026-04-21 10:40 | 54.96801 | 77.28993 | 36955 ft | 519 kts | 102° |
| 2026-04-21 10:40 | 54.95309 | 77.41262 | 36950 ft | 520 kts | 102° |
| 2026-04-21 10:41 | 54.93831 | 77.53487 | 36947 ft | 520 kts | 102° |
| 2026-04-21 10:41 | 54.92419 | 77.65716 | 36957 ft | 520 kts | 99° |
| 2026-04-21 10:42 | 54.91309 | 77.78091 | 36949 ft | 520 kts | 100° |
| 2026-04-21 10:42 | 54.90039 | 77.90514 | 36946 ft | 521 kts | 101° |
| 2026-04-21 10:43 | 54.88737 | 78.02831 | 36949 ft | 521 kts | 101° |
| 2026-04-21 10:43 | 54.87443 | 78.15119 | 36943 ft | 521 kts | 100° |
| 2026-04-21 10:44 | 54.86153 | 78.27486 | 36939 ft | 521 kts | 100° |
| 2026-04-21 10:44 | 54.84873 | 78.39879 | 36954 ft | 522 kts | 99° |
| 2026-04-21 10:45 | 54.83612 | 78.52213 | 36955 ft | 522 kts | 99° |
| 2026-04-21 10:45 | 54.82366 | 78.64513 | 36951 ft | 522 kts | 99° |
| 2026-04-21 10:46 | 54.81126 | 78.76860 | 36946 ft | 522 kts | 100° |
| 2026-04-21 10:46 | 54.79894 | 78.89262 | 36947 ft | 522 kts | 99° |
| 2026-04-21 10:47 | 54.78679 | 79.01632 | 36958 ft | 523 kts | 99° |
| 2026-04-21 10:47 | 54.77471 | 79.13986 | 36964 ft | 523 kts | 99° |
| 2026-04-21 10:48 | 54.76280 | 79.26381 | 36970 ft | 523 kts | 98° |
| 2026-04-21 10:48 | 54.75108 | 79.38714 | 36968 ft | 523 kts | 98° |
| 2026-04-21 10:49 | 54.73938 | 79.51116 | 36979 ft | 523 kts | 98° |
| 2026-04-21 10:49 | 54.72786 | 79.63454 | 36983 ft | 523 kts | 97° |
| 2026-04-21 10:50 | 54.71650 | 79.75832 | 36982 ft | 522 kts | 98° |
| 2026-04-21 10:50 | 54.70514 | 79.88254 | 36992 ft | 523 kts | 98° |
| 2026-04-21 10:51 | 54.69400 | 80.00609 | 36991 ft | 523 kts | 98° |
| 2026-04-21 10:51 | 54.68296 | 80.12980 | 36978 ft | 524 kts | 97° |
| 2026-04-21 10:52 | 54.67199 | 80.25429 | 36987 ft | 524 kts | 97° |
| 2026-04-21 10:52 | 54.66125 | 80.37784 | 37006 ft | 524 kts | 97° |
| 2026-04-21 10:53 | 54.65065 | 80.50144 | 36999 ft | 523 kts | 97° |
| 2026-04-21 10:53 | 54.64006 | 80.62569 | 36982 ft | 524 kts | 97° |
| 2026-04-21 10:54 | 54.62971 | 80.74909 | 36972 ft | 524 kts | 97° |
| 2026-04-21 10:54 | 54.61931 | 80.87401 | 36960 ft | 524 kts | 97° |
| 2026-04-21 10:55 | 54.60918 | 80.99759 | 36973 ft | 524 kts | 97° |
| 2026-04-21 10:55 | 54.59678 | 81.12096 | 36983 ft | 525 kts | 100° |
| 2026-04-21 10:56 | 54.58218 | 81.24448 | 36994 ft | 525 kts | 100° |
| 2026-04-21 10:56 | 54.56768 | 81.36774 | 37015 ft | 525 kts | 100° |
| 2026-04-21 10:57 | 54.55332 | 81.49077 | 36988 ft | 524 kts | 100° |
| 2026-04-21 10:57 | 54.53921 | 81.61301 | 36987 ft | 525 kts | 99° |
| 2026-04-21 10:58 | 54.52527 | 81.73550 | 36980 ft | 525 kts | 100° |
| 2026-04-21 10:58 | 54.51131 | 81.85838 | 36996 ft | 524 kts | 100° |
| 2026-04-21 10:59 | 54.49755 | 81.98107 | 36982 ft | 524 kts | 99° |
| 2026-04-21 10:59 | 54.48389 | 82.10412 | 36987 ft | 524 kts | 99° |
| 2026-04-21 11:00 | 54.47013 | 82.22689 | 36993 ft | 524 kts | 100° |
| 2026-04-21 11:00 | 54.45581 | 82.34877 | 37001 ft | 526 kts | 99° |
| 2026-04-21 11:01 | 54.44123 | 82.47173 | 37011 ft | 525 kts | 99° |
| 2026-04-21 11:01 | 54.42684 | 82.59416 | 36993 ft | 524 kts | 99° |
| 2026-04-21 11:02 | 54.40554 | 82.77734 | 36989 ft | 524 kts | 100° |
| 2026-04-21 11:02 | 54.39135 | 82.90045 | 36977 ft | 526 kts | 100° |
| 2026-04-21 11:03 | 54.37643 | 83.02295 | 36991 ft | 526 kts | 101° |
| 2026-04-21 11:03 | 54.36033 | 83.14535 | 36991 ft | 525 kts | 101° |
| 2026-04-21 11:04 | 54.34427 | 83.26701 | 37019 ft | 525 kts | 101° |
| 2026-04-21 11:04 | 54.32832 | 83.38833 | 37016 ft | 525 kts | 101° |
| 2026-04-21 11:05 | 54.31247 | 83.51033 | 36996 ft | 526 kts | 101° |
| 2026-04-21 11:05 | 54.29670 | 83.63203 | 36971 ft | 526 kts | 101° |
| 2026-04-21 11:06 | 54.28119 | 83.75377 | 36977 ft | 525 kts | 101° |
| 2026-04-21 11:06 | 54.26563 | 83.87582 | 36967 ft | 525 kts | 101° |
| 2026-04-21 11:07 | 54.25019 | 83.99772 | 36986 ft | 526 kts | 101° |
| 2026-04-21 11:07 | 54.23442 | 84.11935 | 36984 ft | 524 kts | 102° |
| 2026-04-21 11:08 | 54.21745 | 84.24011 | 36986 ft | 526 kts | 102° |
| 2026-04-21 11:08 | 54.20038 | 84.36091 | 37000 ft | 525 kts | 102° |
| 2026-04-21 11:09 | 54.18343 | 84.48168 | 37004 ft | 525 kts | 102° |
| 2026-04-21 11:09 | 54.16663 | 84.60230 | 36995 ft | 525 kts | 102° |
| 2026-04-21 11:10 | 54.15001 | 84.72270 | 37012 ft | 525 kts | 102° |
| 2026-04-21 11:10 | 54.13361 | 84.84242 | 37019 ft | 525 kts | 102° |
| 2026-04-21 11:11 | 54.11693 | 84.96435 | 37038 ft | 525 kts | 102° |
| 2026-04-21 11:11 | 54.10009 | 85.08495 | 37028 ft | 525 kts | 104° |
| 2026-04-21 11:12 | 54.08093 | 85.20473 | 37024 ft | 524 kts | 104° |
| 2026-04-21 11:12 | 54.06175 | 85.32363 | 37020 ft | 525 kts | 104° |
| 2026-04-21 11:13 | 54.04248 | 85.44382 | 37008 ft | 525 kts | 104° |
| 2026-04-21 11:13 | 54.02356 | 85.56271 | 37009 ft | 525 kts | 103° |
| 2026-04-21 11:14 | 54.00460 | 85.68222 | 37009 ft | 526 kts | 104° |
| 2026-04-21 11:14 | 53.98591 | 85.80129 | 37008 ft | 525 kts | 104° |
| 2026-04-21 11:15 | 53.96712 | 85.92149 | 37006 ft | 525 kts | 104° |
| 2026-04-21 11:15 | 53.94854 | 86.04095 | 37010 ft | 525 kts | 103° |
| 2026-04-21 11:16 | 53.93008 | 86.16077 | 37009 ft | 526 kts | 104° |
| 2026-04-21 11:16 | 53.91038 | 86.27944 | 37008 ft | 525 kts | 105° |
| 2026-04-21 11:17 | 53.89031 | 86.39835 | 36996 ft | 525 kts | 104° |
| 2026-04-21 11:17 | 53.87049 | 86.51656 | 36997 ft | 526 kts | 104° |
| 2026-04-21 11:18 | 53.85051 | 86.63606 | 37002 ft | 526 kts | 104° |
| 2026-04-21 11:18 | 53.83096 | 86.75424 | 36997 ft | 526 kts | 105° |
| 2026-04-21 11:19 | 53.82329 | 86.81498 | 36958 ft | 524 kts | 94° |
| 2026-04-21 11:19 | 53.82310 | 86.87582 | 36998 ft | 518 kts | 82° |
| 2026-04-21 11:19 | 53.83117 | 86.99517 | 36966 ft | 518 kts | 76° |
| 2026-04-21 11:20 | 53.84508 | 87.11226 | 36991 ft | 515 kts | 72° |
| 2026-04-21 11:20 | 53.86108 | 87.22772 | 37003 ft | 514 kts | 72° |
| 2026-04-21 11:21 | 53.87782 | 87.34480 | 36996 ft | 513 kts | 71° |
| 2026-04-21 11:21 | 53.89478 | 87.46187 | 36998 ft | 514 kts | 71° |
| 2026-04-21 11:22 | 53.91177 | 87.57851 | 36993 ft | 514 kts | 71° |
| 2026-04-21 11:22 | 53.92863 | 87.69604 | 36982 ft | 515 kts | 72° |
| 2026-04-21 11:23 | 53.94514 | 87.81419 | 36984 ft | 515 kts | 72° |
| 2026-04-21 11:23 | 53.96135 | 87.93348 | 36983 ft | 515 kts | 72° |
| 2026-04-21 11:24 | 53.97702 | 88.05135 | 36995 ft | 515 kts | 72° |
| 2026-04-21 11:24 | 53.99276 | 88.16979 | 36983 ft | 516 kts | 72° |
| 2026-04-21 11:25 | 54.00859 | 88.28786 | 36990 ft | 516 kts | 72° |
| 2026-04-21 11:25 | 54.02455 | 88.40628 | 36999 ft | 514 kts | 72° |
| 2026-04-21 11:26 | 54.04055 | 88.52393 | 36987 ft | 514 kts | 72° |
| 2026-04-21 11:26 | 54.05674 | 88.64239 | 37001 ft | 515 kts | 71° |
| 2026-04-21 11:27 | 54.07298 | 88.76025 | 36990 ft | 513 kts | 72° |
| 2026-04-21 11:27 | 54.08768 | 88.87942 | 36974 ft | 515 kts | 75° |
| 2026-04-21 11:28 | 54.10095 | 88.99869 | 36948 ft | 516 kts | 75° |
| 2026-04-21 11:28 | 54.11432 | 89.11839 | 36969 ft | 516 kts | 74° |
| 2026-04-21 11:29 | 54.12788 | 89.23854 | 36978 ft | 517 kts | 74° |
| 2026-04-21 11:29 | 54.14149 | 89.35854 | 36955 ft | 515 kts | 74° |
| 2026-04-21 11:30 | 54.15533 | 89.47877 | 36965 ft | 517 kts | 74° |
| 2026-04-21 11:30 | 54.16916 | 89.59826 | 36958 ft | 516 kts | 74° |
| 2026-04-21 11:31 | 54.18298 | 89.71650 | 36918 ft | 517 kts | 74° |
| 2026-04-21 11:31 | 54.19683 | 89.83387 | 36963 ft | 518 kts | 74° |
| 2026-04-21 11:32 | 54.21090 | 89.95454 | 36948 ft | 518 kts | 75° |
| 2026-04-21 11:32 | 54.22420 | 90.07554 | 36960 ft | 519 kts | 75° |
| 2026-04-21 11:33 | 54.23711 | 90.19573 | 36935 ft | 519 kts | 75° |
| 2026-04-21 11:33 | 54.25008 | 90.31633 | 36956 ft | 519 kts | 75° |
| 2026-04-21 11:34 | 54.26323 | 90.43724 | 36975 ft | 518 kts | 75° |
| 2026-04-21 11:34 | 54.27651 | 90.55819 | 36957 ft | 518 kts | 74° |
| 2026-04-21 11:35 | 54.28978 | 90.67808 | 36955 ft | 519 kts | 75° |
| 2026-04-21 11:35 | 54.30334 | 90.79902 | 36927 ft | 520 kts | 74° |
| 2026-04-21 11:36 | 54.31700 | 90.92049 | 36967 ft | 519 kts | 74° |
| 2026-04-21 11:36 | 54.33074 | 91.04139 | 36967 ft | 519 kts | 74° |
| 2026-04-21 11:37 | 54.34467 | 91.16293 | 36962 ft | 519 kts | 73° |
| 2026-04-21 11:37 | 54.35865 | 91.28339 | 36955 ft | 520 kts | 73° |
| 2026-04-21 11:38 | 54.37273 | 91.40452 | 36974 ft | 520 kts | 73° |
| 2026-04-21 11:38 | 54.37614 | 91.52782 | 37002 ft | 530 kts | 94° |
| 2026-04-21 11:39 | 54.36509 | 91.65269 | 36938 ft | 533 kts | 99° |
| 2026-04-21 11:39 | 54.35021 | 91.77683 | 36940 ft | 534 kts | 101° |
| 2026-04-21 11:40 | 54.33450 | 91.90089 | 36947 ft | 534 kts | 101° |
| 2026-04-21 11:40 | 54.31877 | 92.02537 | 36944 ft | 534 kts | 101° |
| 2026-04-21 11:41 | 54.30335 | 92.14867 | 36968 ft | 534 kts | 100° |
| 2026-04-21 11:41 | 54.28802 | 92.27205 | 36941 ft | 533 kts | 100° |
| 2026-04-21 11:42 | 54.27271 | 92.39624 | 36943 ft | 534 kts | 100° |
| 2026-04-21 11:42 | 54.25766 | 92.51949 | 36962 ft | 534 kts | 99° |
| 2026-04-21 11:43 | 54.24264 | 92.64346 | 36962 ft | 533 kts | 99° |
| 2026-04-21 11:43 | 54.22786 | 92.76663 | 36967 ft | 533 kts | 100° |
| 2026-04-21 11:44 | 54.21307 | 92.89090 | 36961 ft | 532 kts | 99° |
| 2026-04-21 11:44 | 54.19843 | 93.01507 | 36954 ft | 533 kts | 99° |
| 2026-04-21 11:45 | 54.18394 | 93.13854 | 36960 ft | 533 kts | 99° |
| 2026-04-21 11:45 | 54.16963 | 93.26191 | 36962 ft | 533 kts | 99° |
| 2026-04-21 11:46 | 54.15545 | 93.38551 | 36960 ft | 533 kts | 99° |
| 2026-04-21 11:46 | 54.14142 | 93.50845 | 36956 ft | 533 kts | 98° |
| 2026-04-21 11:47 | 54.12740 | 93.63268 | 36966 ft | 533 kts | 98° |
| 2026-04-21 11:47 | 54.11199 | 93.75533 | 36952 ft | 534 kts | 103° |
| 2026-04-21 11:48 | 54.09298 | 93.87808 | 36963 ft | 536 kts | 104° |
| 2026-04-21 11:48 | 54.07355 | 93.99961 | 36954 ft | 535 kts | 104° |
| 2026-04-21 11:49 | 54.05456 | 94.11845 | 36946 ft | 536 kts | 103° |
| 2026-04-21 11:49 | 54.03610 | 94.23423 | 36926 ft | 535 kts | 103° |
| 2026-04-21 11:50 | 54.01759 | 94.35164 | 36927 ft | 536 kts | 103° |
| 2026-04-21 11:50 | 53.99852 | 94.47285 | 36936 ft | 535 kts | 103° |
| 2026-04-21 11:51 | 53.97956 | 94.59458 | 36962 ft | 534 kts | 102° |
| 2026-04-21 11:51 | 53.96074 | 94.71622 | 36944 ft | 535 kts | 103° |
| 2026-04-21 11:52 | 53.94195 | 94.83843 | 36932 ft | 535 kts | 103° |
| 2026-04-21 11:52 | 53.92320 | 94.96060 | 36946 ft | 535 kts | 102° |
| 2026-04-21 11:53 | 53.90471 | 95.08254 | 36926 ft | 535 kts | 102° |
| 2026-04-21 11:53 | 53.88645 | 95.20337 | 36915 ft | 534 kts | 102° |
| 2026-04-21 11:54 | 53.86824 | 95.32500 | 36917 ft | 534 kts | 102° |
| 2026-04-21 11:54 | 53.85027 | 95.44598 | 36912 ft | 532 kts | 102° |
| 2026-04-21 11:55 | 53.83232 | 95.56723 | 36905 ft | 532 kts | 101° |
| 2026-04-21 11:55 | 53.81441 | 95.68909 | 36879 ft | 532 kts | 102° |
| 2026-04-21 11:56 | 53.79682 | 95.80969 | 36855 ft | 531 kts | 102° |
| 2026-04-21 11:56 | 53.77920 | 95.93137 | 36881 ft | 532 kts | 102° |
| 2026-04-21 11:57 | 53.76179 | 96.05254 | 36898 ft | 531 kts | 101° |
| 2026-04-21 11:57 | 53.74462 | 96.17287 | 36931 ft | 531 kts | 101° |
| 2026-04-21 11:58 | 53.72744 | 96.29399 | 36946 ft | 531 kts | 101° |
| 2026-04-21 11:58 | 53.71053 | 96.41393 | 36934 ft | 530 kts | 101° |
| 2026-04-21 11:59 | 53.69367 | 96.53475 | 36903 ft | 530 kts | 101° |
| 2026-04-21 11:59 | 53.67737 | 96.65207 | 36881 ft | 530 kts | 101° |
| 2026-04-21 12:00 | 53.66079 | 96.77277 | 36842 ft | 530 kts | 101° |
| 2026-04-21 12:00 | 53.64426 | 96.89352 | 36833 ft | 530 kts | 101° |
| 2026-04-21 12:01 | 53.62787 | 97.01399 | 36824 ft | 530 kts | 101° |
| 2026-04-21 12:01 | 53.61186 | 97.13323 | 36834 ft | 531 kts | 100° |
| 2026-04-21 12:02 | 53.58763 | 97.31407 | 36841 ft | 530 kts | 100° |
| 2026-04-21 12:03 | 53.56771 | 97.43381 | 36839 ft | 533 kts | 106° |
| 2026-04-21 12:03 | 53.54478 | 97.55165 | 36817 ft | 533 kts | 106° |
| 2026-04-21 12:04 | 53.52177 | 97.66920 | 36826 ft | 534 kts | 107° |
| 2026-04-21 12:04 | 53.49874 | 97.78695 | 36864 ft | 535 kts | 107° |
| 2026-04-21 12:05 | 53.47564 | 97.90540 | 36856 ft | 535 kts | 107° |
| 2026-04-21 12:05 | 53.45285 | 98.02348 | 36841 ft | 536 kts | 107° |
| 2026-04-21 12:06 | 53.43015 | 98.14156 | 36835 ft | 535 kts | 106° |
| 2026-04-21 12:06 | 53.40739 | 98.26011 | 36820 ft | 535 kts | 106° |
| 2026-04-21 12:07 | 53.38501 | 98.37775 | 36831 ft | 536 kts | 105° |
| 2026-04-21 12:07 | 53.36258 | 98.49604 | 36860 ft | 535 kts | 105° |
| 2026-04-21 12:08 | 53.34022 | 98.61487 | 36837 ft | 535 kts | 105° |
| 2026-04-21 12:08 | 53.31809 | 98.73292 | 36834 ft | 534 kts | 106° |
| 2026-04-21 12:09 | 53.29612 | 98.85050 | 36839 ft | 534 kts | 106° |
| 2026-04-21 12:09 | 53.27422 | 98.96863 | 36850 ft | 533 kts | 105° |
| 2026-04-21 12:10 | 53.25245 | 99.08653 | 36855 ft | 533 kts | 105° |
| 2026-04-21 12:10 | 53.23078 | 99.20460 | 36869 ft | 533 kts | 104° |
| 2026-04-21 12:11 | 53.20947 | 99.32160 | 36891 ft | 532 kts | 104° |
| 2026-04-21 12:11 | 53.18798 | 99.43984 | 36872 ft | 531 kts | 105° |
| 2026-04-21 12:12 | 53.16682 | 99.55688 | 36863 ft | 532 kts | 104° |
| 2026-04-21 12:12 | 53.14584 | 99.67382 | 36887 ft | 531 kts | 104° |
| 2026-04-21 12:13 | 53.12493 | 99.79150 | 36885 ft | 531 kts | 104° |
| 2026-04-21 12:13 | 53.10400 | 99.90895 | 36847 ft | 530 kts | 104° |
| 2026-04-21 12:14 | 53.08322 | 100.02621 | 36822 ft | 530 kts | 104° |
| 2026-04-21 12:14 | 53.06279 | 100.14297 | 36803 ft | 524 kts | 104° |
| 2026-04-21 12:15 | 53.04254 | 100.25874 | 36841 ft | 525 kts | 104° |
| 2026-04-21 12:15 | 53.02249 | 100.37389 | 36881 ft | 524 kts | 103° |
| 2026-04-21 12:16 | 53.00246 | 100.49033 | 36883 ft | 524 kts | 103° |
| 2026-04-21 12:16 | 52.98008 | 100.60348 | 36501 ft | 514 kts | 107° |
| 2026-04-21 12:16 | 52.96809 | 100.65929 | 36127 ft | 506 kts | 109° |
| 2026-04-21 12:17 | 52.95630 | 100.71380 | 35721 ft | 505 kts | 108° |
| 2026-04-21 12:17 | 52.94456 | 100.76776 | 35279 ft | 503 kts | 108° |
| 2026-04-21 12:17 | 52.93281 | 100.82187 | 34768 ft | 501 kts | 109° |
| 2026-04-21 12:17 | 52.92129 | 100.87544 | 34228 ft | 496 kts | 108° |
| 2026-04-21 12:18 | 52.90971 | 100.92891 | 33668 ft | 490 kts | 108° |
| 2026-04-21 12:18 | 52.89835 | 100.98122 | 33121 ft | 486 kts | 107° |
| 2026-04-21 12:18 | 52.88718 | 101.03310 | 32564 ft | 481 kts | 108° |
| 2026-04-21 12:18 | 52.87601 | 101.08505 | 32011 ft | 477 kts | 107° |
| 2026-04-21 12:19 | 52.86501 | 101.13645 | 31427 ft | 473 kts | 107° |
| 2026-04-21 12:19 | 52.85417 | 101.18707 | 30849 ft | 468 kts | 107° |
| 2026-04-21 12:19 | 52.84343 | 101.23737 | 30270 ft | 462 kts | 107° |
| 2026-04-21 12:19 | 52.83272 | 101.28770 | 29690 ft | 458 kts | 107° |
| 2026-04-21 12:20 | 52.82241 | 101.33627 | 29124 ft | 453 kts | 106° |
| 2026-04-21 12:20 | 52.81203 | 101.38513 | 28544 ft | 449 kts | 107° |
| 2026-04-21 12:20 | 52.80186 | 101.43334 | 27972 ft | 444 kts | 106° |
| 2026-04-21 12:20 | 52.79178 | 101.48101 | 27399 ft | 439 kts | 106° |
| 2026-04-21 12:21 | 52.78175 | 101.52854 | 26831 ft | 434 kts | 106° |
| 2026-04-21 12:21 | 52.77195 | 101.57512 | 26264 ft | 429 kts | 106° |
| 2026-04-21 12:21 | 52.76219 | 101.62124 | 25693 ft | 424 kts | 106° |
| 2026-04-21 12:21 | 52.75266 | 101.66682 | 25113 ft | 420 kts | 107° |
| 2026-04-21 12:22 | 52.74337 | 101.71136 | 24543 ft | 415 kts | 107° |
| 2026-04-21 12:22 | 52.73398 | 101.75605 | 23964 ft | 411 kts | 107° |
| 2026-04-21 12:22 | 52.72472 | 101.80016 | 23399 ft | 406 kts | 107° |
| 2026-04-21 12:22 | 52.71559 | 101.84406 | 22828 ft | 401 kts | 107° |
| 2026-04-21 12:23 | 52.70673 | 101.88661 | 22243 ft | 395 kts | 107° |
| 2026-04-21 12:23 | 52.69797 | 101.92866 | 21685 ft | 390 kts | 107° |
| 2026-04-21 12:23 | 52.68927 | 101.97069 | 21106 ft | 385 kts | 107° |
| 2026-04-21 12:23 | 52.68078 | 102.01189 | 20517 ft | 380 kts | 107° |
| 2026-04-21 12:24 | 52.67229 | 102.05293 | 19987 ft | 374 kts | 107° |
| 2026-04-21 12:24 | 52.66405 | 102.09274 | 19919 ft | 368 kts | 107° |
| 2026-04-21 12:24 | 52.65583 | 102.13261 | 19936 ft | 370 kts | 106° |
| 2026-04-21 12:24 | 52.64758 | 102.17277 | 19909 ft | 373 kts | 106° |
| 2026-04-21 12:25 | 52.63919 | 102.21378 | 19924 ft | 374 kts | 106° |
| 2026-04-21 12:25 | 52.63095 | 102.25395 | 19917 ft | 375 kts | 106° |
| 2026-04-21 12:25 | 52.62262 | 102.29468 | 19960 ft | 375 kts | 106° |
| 2026-04-21 12:25 | 52.61431 | 102.33517 | 19906 ft | 377 kts | 106° |
| 2026-04-21 12:26 | 52.60612 | 102.37553 | 19901 ft | 374 kts | 105° |
| 2026-04-21 12:26 | 52.59781 | 102.41637 | 19915 ft | 374 kts | 105° |
| 2026-04-21 12:26 | 52.58960 | 102.45688 | 19946 ft | 376 kts | 105° |
| 2026-04-21 12:26 | 52.58140 | 102.49731 | 19907 ft | 376 kts | 105° |
| 2026-04-21 12:27 | 52.57317 | 102.53799 | 19933 ft | 377 kts | 105° |
| 2026-04-21 12:27 | 52.56486 | 102.57900 | 19924 ft | 376 kts | 105° |
| 2026-04-21 12:27 | 52.55678 | 102.61913 | 19886 ft | 375 kts | 105° |
| 2026-04-21 12:27 | 52.54852 | 102.66019 | 19897 ft | 375 kts | 106° |
| 2026-04-21 12:28 | 52.54039 | 102.70068 | 19935 ft | 377 kts | 106° |
| 2026-04-21 12:28 | 52.53226 | 102.74131 | 19897 ft | 375 kts | 106° |
| 2026-04-21 12:28 | 52.52405 | 102.78227 | 19924 ft | 376 kts | 106° |
| 2026-04-21 12:28 | 52.51596 | 102.82268 | 19930 ft | 378 kts | 106° |
| 2026-04-21 12:29 | 52.50785 | 102.86326 | 19905 ft | 377 kts | 105° |
| 2026-04-21 12:29 | 52.49963 | 102.90449 | 19897 ft | 376 kts | 105° |
| 2026-04-21 12:29 | 52.49159 | 102.94497 | 19898 ft | 376 kts | 105° |
| 2026-04-21 12:29 | 52.48352 | 102.98565 | 19928 ft | 378 kts | 106° |
| 2026-04-21 12:30 | 52.47541 | 103.02652 | 19903 ft | 377 kts | 105° |
| 2026-04-21 12:30 | 52.46732 | 103.06747 | 19907 ft | 377 kts | 105° |
| 2026-04-21 12:30 | 52.45934 | 103.10785 | 19918 ft | 378 kts | 105° |
| 2026-04-21 12:30 | 52.45124 | 103.14881 | 19889 ft | 377 kts | 105° |
| 2026-04-21 12:31 | 52.44341 | 103.18987 | 19944 ft | 376 kts | 100° |
| 2026-04-21 12:31 | 52.43984 | 103.23158 | 19885 ft | 372 kts | 90° |
| 2026-04-21 12:31 | 52.43764 | 103.27385 | 19976 ft | 374 kts | 90° |
| 2026-04-21 12:31 | 52.43554 | 103.31652 | 19952 ft | 377 kts | 90° |
| 2026-04-21 12:32 | 52.43339 | 103.35893 | 19697 ft | 376 kts | 90° |
| 2026-04-21 12:32 | 52.43119 | 103.40158 | 19254 ft | 373 kts | 90° |
| 2026-04-21 12:32 | 52.42895 | 103.44314 | 18705 ft | 365 kts | 90° |
| 2026-04-21 12:32 | 52.42674 | 103.48379 | 18135 ft | 358 kts | 90° |
| 2026-04-21 12:33 | 52.42454 | 103.52369 | 17549 ft | 355 kts | 90° |
| 2026-04-21 12:33 | 52.42234 | 103.56403 | 16993 ft | 353 kts | 90° |
| 2026-04-21 12:33 | 52.42011 | 103.60382 | 16429 ft | 350 kts | 91° |
| 2026-04-21 12:33 | 52.41792 | 103.64311 | 15871 ft | 347 kts | 90° |
| 2026-04-21 12:34 | 52.41574 | 103.68186 | 15302 ft | 346 kts | 91° |
| 2026-04-21 12:34 | 52.41354 | 103.72060 | 14694 ft | 343 kts | 92° |
| 2026-04-21 12:34 | 52.41133 | 103.75933 | 14089 ft | 340 kts | 91° |
| 2026-04-21 12:34 | 52.40916 | 103.79765 | 13452 ft | 337 kts | 92° |
| 2026-04-21 12:35 | 52.40707 | 103.83550 | 12768 ft | 334 kts | 92° |
| 2026-04-21 12:35 | 52.40199 | 103.87207 | 12028 ft | 334 kts | 110° |
| 2026-04-21 12:35 | 52.39344 | 103.90697 | 11358 ft | 330 kts | 112° |
| 2026-04-21 12:35 | 52.38484 | 103.94127 | 10663 ft | 327 kts | 113° |
| 2026-04-21 12:36 | 52.37626 | 103.97534 | 9961 ft | 324 kts | 113° |
| 2026-04-21 12:36 | 52.36773 | 104.00935 | 9264 ft | 318 kts | 113° |
| 2026-04-21 12:36 | 52.35943 | 104.04224 | 8595 ft | 312 kts | 113° |
| 2026-04-21 12:36 | 52.35136 | 104.07427 | 7893 ft | 306 kts | 113° |
| 2026-04-21 12:37 | 52.34339 | 104.10593 | 7201 ft | 300 kts | 113° |
| 2026-04-21 12:37 | 52.33550 | 104.13681 | 6447 ft | 288 kts | 114° |
| 2026-04-21 12:37 | 52.32777 | 104.16605 | 5719 ft | 274 kts | 114° |
| 2026-04-21 12:37 | 52.32037 | 104.19388 | 4997 ft | 263 kts | 114° |
| 2026-04-21 12:38 | 52.31337 | 104.22013 | 4444 ft | 248 kts | 115° |
| 2026-04-21 12:38 | 52.30669 | 104.24520 | 3892 ft | 234 kts | 116° |
| 2026-04-21 12:38 | 52.29975 | 104.26780 | 3285 ft | 211 kts | 117° |
| 2026-04-21 12:38 | 52.29400 | 104.28877 | 2591 ft | 199 kts | 109° |
| 2026-04-21 12:39 | 52.28991 | 104.30879 | 2103 ft | 176 kts | 113° |
| 2026-04-21 12:39 | 52.28554 | 104.32554 | 1837 ft | 149 kts | 116° |
| 2026-04-21 12:39 | 52.28126 | 104.34087 | 1779 ft | 145 kts | 116° |
| 2026-04-21 12:39 | 52.27716 | 104.35616 | 1764 ft | 148 kts | 114° |
| 2026-04-21 12:40 | 52.27335 | 104.37130 | 1651 ft | 147 kts | 115° |
| 2026-04-21 12:40 | 52.26943 | 104.38598 | 1612 ft | 114 kts | 114° |
| 2026-04-21 12:40 | 52.26742 | 104.39365 | 1630 ft | 46 kts | 114° |
| 2026-04-21 12:40 | 52.26642 | 104.39738 | 1638 ft | 30 kts | 113° |
| 2026-04-21 12:41 | 52.26566 | 104.40028 | 1643 ft | 25 kts | 114° |
| 2026-04-21 12:41 | 52.26500 | 104.40268 | 1648 ft | 21 kts | 113° |
| 2026-04-21 12:41 | 52.26440 | 104.40486 | 1652 ft | 21 kts | 113° |
| 2026-04-21 12:41 | 52.26384 | 104.40707 | 1656 ft | 21 kts | 111° |
| 2026-04-21 12:42 | 52.26331 | 104.40915 | 1660 ft | 19 kts | 112° |
| 2026-04-21 12:42 | 52.26279 | 104.41116 | 1665 ft | 17 kts | 114° |
| 2026-04-21 12:42 | 52.26229 | 104.41260 | 1669 ft | 12 kts | 138° |
| 2026-04-21 12:42 | 52.26168 | 104.41279 | 1670 ft | 7 kts | 198° |
| 2026-04-21 12:43 | 52.26128 | 104.41251 | 1671 ft | 5 kts | 204° |
| 2026-04-21 12:43 | 52.26097 | 104.41228 | 1671 ft | 2 kts | 204° |
| 2026-04-21 12:43 | 52.26096 | 104.41228 | 1671 ft | 0 kts | 204° |
| 2026-04-21 12:44 | 52.26071 | 104.41210 | 1671 ft | 10 kts | 203° |
| 2026-04-21 12:44 | 52.26001 | 104.41139 | 1668 ft | 10 kts | 246° |
| 2026-04-21 12:44 | 52.26008 | 104.41026 | 1667 ft | 10 kts | 293° |
| 2026-04-21 12:45 | 52.26038 | 104.40915 | 1664 ft | 11 kts | 293° |
| 2026-04-21 12:45 | 52.26078 | 104.40760 | 1660 ft | 18 kts | 291° |
| 2026-04-21 12:45 | 52.26138 | 104.40534 | 1654 ft | 29 kts | 292° |
| 2026-04-21 12:45 | 52.26220 | 104.40221 | 1652 ft | 28 kts | 293° |
| 2026-04-21 12:46 | 52.26295 | 104.39941 | 1654 ft | 25 kts | 293° |
| 2026-04-21 12:46 | 52.26363 | 104.39689 | 1656 ft | 23 kts | 292° |
| 2026-04-21 12:46 | 52.26424 | 104.39453 | 1656 ft | 21 kts | 293° |
| 2026-04-21 12:46 | 52.26483 | 104.39233 | 1653 ft | 21 kts | 294° |
| 2026-04-21 12:47 | 52.26543 | 104.39014 | 1649 ft | 21 kts | 292° |
| 2026-04-21 12:47 | 52.26601 | 104.38794 | 1642 ft | 20 kts | 292° |
| 2026-04-21 12:47 | 52.26660 | 104.38569 | 1634 ft | 23 kts | 292° |
| 2026-04-21 12:47 | 52.26725 | 104.38325 | 1627 ft | 22 kts | 293° |
| 2026-04-21 12:48 | 52.26787 | 104.38090 | 1623 ft | 22 kts | 292° |
| 2026-04-21 12:48 | 52.26849 | 104.37864 | 1619 ft | 19 kts | 294° |
| 2026-04-21 12:48 | 52.26903 | 104.37662 | 1615 ft | 19 kts | 291° |
| 2026-04-21 12:48 | 52.26954 | 104.37463 | 1610 ft | 16 kts | 293° |
| 2026-04-21 12:49 | 52.26997 | 104.37304 | 1607 ft | 10 kts | 291° |
| 2026-04-21 12:49 | 52.26995 | 104.37208 | 1609 ft | 6 kts | 253° |
| 2026-04-21 12:49 | 52.26990 | 104.37161 | 1610 ft | 4 kts | 264° |
| 2026-04-21 12:49 | 52.27007 | 104.37058 | 1610 ft | 16 kts | 291° |
| 2026-04-21 12:50 | 52.27047 | 104.36882 | 1609 ft | 14 kts | 288° |
| 2026-04-21 12:50 | 52.27082 | 104.36723 | 1605 ft | 15 kts | 290° |
| 2026-04-21 12:50 | 52.27105 | 104.36626 | 1600 ft | 5 kts | 301° |
| 2026-04-21 12:50 | 52.27145 | 104.36626 | 1598 ft | 7 kts | 22° |
| 2026-04-21 12:51 | 52.27161 | 104.36635 | 1597 ft | 0 kts | 19° |